sensor_id;sensor_type;location;lat;lon;timestamp;P1;durP1;ratioP1;P2;durP2;ratioP2
42282;SDS011;28237;47.954;21.730;2023-09-19T00:01:12;3.45;;;2.80;;
42282;SDS011;28237;47.954;21.730;2023-09-19T00:03:37;4.10;;;2.73;;
42282;SDS011;28237;47.954;21.730;2023-09-19T00:06:03;2.92;;;2.33;;
42282;SDS011;28237;47.954;21.730;2023-09-19T00:08:35;4.38;;;3.10;;
42282;SDS011;28237;47.954;21.730;2023-09-19T00:11:00;3.67;;;2.83;;
42282;SDS011;28237;47.954;21.730;2023-09-19T00:13:27;3.03;;;2.75;;
42282;SDS011;28237;47.954;21.730;2023-09-19T00:15:53;3.40;;;2.78;;
42282;SDS011;28237;47.954;21.730;2023-09-19T00:18:20;3.10;;;2.33;;
42282;SDS011;28237;47.954;21.730;2023-09-19T00:20:46;3.10;;;2.35;;
42282;SDS011;28237;47.954;21.730;2023-09-19T00:23:13;3.33;;;2.67;;
42282;SDS011;28237;47.954;21.730;2023-09-19T00:25:38;3.67;;;2.45;;
42282;SDS011;28237;47.954;21.730;2023-09-19T00:28:05;3.58;;;2.78;;
42282;SDS011;28237;47.954;21.730;2023-09-19T00:30:32;3.30;;;3.00;;
42282;SDS011;28237;47.954;21.730;2023-09-19T00:32:58;3.75;;;3.30;;
42282;SDS011;28237;47.954;21.730;2023-09-19T00:35:23;2.95;;;2.42;;
42282;SDS011;28237;47.954;21.730;2023-09-19T00:37:49;4.10;;;2.53;;
42282;SDS011;28237;47.954;21.730;2023-09-19T00:40:14;3.63;;;2.60;;
42282;SDS011;28237;47.954;21.730;2023-09-19T00:42:43;2.47;;;2.28;;
42282;SDS011;28237;47.954;21.730;2023-09-19T00:45:08;2.95;;;2.75;;
42282;SDS011;28237;47.954;21.730;2023-09-19T00:47:41;3.25;;;2.60;;
42282;SDS011;28237;47.954;21.730;2023-09-19T00:50:07;2.80;;;2.53;;
42282;SDS011;28237;47.954;21.730;2023-09-19T00:52:34;2.85;;;2.40;;
42282;SDS011;28237;47.954;21.730;2023-09-19T00:55:01;2.78;;;2.40;;
42282;SDS011;28237;47.954;21.730;2023-09-19T00:57:27;3.22;;;2.92;;
42282;SDS011;28237;47.954;21.730;2023-09-19T00:59:58;2.45;;;2.25;;
42282;SDS011;28237;47.954;21.730;2023-09-19T01:02:23;3.10;;;2.42;;
42282;SDS011;28237;47.954;21.730;2023-09-19T01:04:49;3.47;;;2.47;;
42282;SDS011;28237;47.954;21.730;2023-09-19T01:07:14;2.80;;;2.50;;
42282;SDS011;28237;47.954;21.730;2023-09-19T01:09:43;3.03;;;2.50;;
42282;SDS011;28237;47.954;21.730;2023-09-19T01:12:09;2.72;;;2.40;;
42282;SDS011;28237;47.954;21.730;2023-09-19T01:17:01;3.10;;;2.20;;
42282;SDS011;28237;47.954;21.730;2023-09-19T01:27:25;3.60;;;2.30;;
42282;SDS011;28237;47.954;21.730;2023-09-19T01:30:17;3.25;;;2.95;;
42282;SDS011;28237;47.954;21.730;2023-09-19T01:32:40;3.10;;;2.45;;
42282;SDS011;28237;47.954;21.730;2023-09-19T01:35:07;3.67;;;2.47;;
42282;SDS011;28237;47.954;21.730;2023-09-19T01:37:37;3.25;;;2.63;;
42282;SDS011;28237;47.954;21.730;2023-09-19T01:43:05;2.90;;;2.60;;
42282;SDS011;28237;47.954;21.730;2023-09-19T01:45:32;3.20;;;2.90;;
42282;SDS011;28237;47.954;21.730;2023-09-19T01:48:05;3.17;;;2.72;;
42282;SDS011;28237;47.954;21.730;2023-09-19T01:50:40;3.30;;;3.03;;
42282;SDS011;28237;47.954;21.730;2023-09-19T01:53:08;3.17;;;2.75;;
42282;SDS011;28237;47.954;21.730;2023-09-19T01:55:41;3.05;;;1.90;;
42282;SDS011;28237;47.954;21.730;2023-09-19T01:58:08;5.22;;;3.53;;
42282;SDS011;28237;47.954;21.730;2023-09-19T02:00:40;3.15;;;2.80;;
42282;SDS011;28237;47.954;21.730;2023-09-19T02:03:07;2.83;;;2.53;;
42282;SDS011;28237;47.954;21.730;2023-09-19T02:05:33;3.13;;;2.83;;
42282;SDS011;28237;47.954;21.730;2023-09-19T02:07:58;4.07;;;2.28;;
42282;SDS011;28237;47.954;21.730;2023-09-19T02:10:24;2.70;;;2.50;;
42282;SDS011;28237;47.954;21.730;2023-09-19T02:12:49;2.83;;;2.40;;
42282;SDS011;28237;47.954;21.730;2023-09-19T02:15:15;4.75;;;3.22;;
42282;SDS011;28237;47.954;21.730;2023-09-19T02:17:41;3.42;;;2.70;;
42282;SDS011;28237;47.954;21.730;2023-09-19T02:20:06;3.65;;;3.30;;
42282;SDS011;28237;47.954;21.730;2023-09-19T02:22:35;3.90;;;3.05;;
42282;SDS011;28237;47.954;21.730;2023-09-19T02:25:00;4.93;;;2.93;;
42282;SDS011;28237;47.954;21.730;2023-09-19T02:27:26;5.95;;;3.28;;
42282;SDS011;28237;47.954;21.730;2023-09-19T02:29:52;4.53;;;4.13;;
42282;SDS011;28237;47.954;21.730;2023-09-19T02:32:17;5.00;;;4.13;;
42282;SDS011;28237;47.954;21.730;2023-09-19T02:34:43;3.88;;;2.92;;
42282;SDS011;28237;47.954;21.730;2023-09-19T02:37:09;4.15;;;2.95;;
42282;SDS011;28237;47.954;21.730;2023-09-19T02:39:35;4.35;;;3.20;;
42282;SDS011;28237;47.954;21.730;2023-09-19T02:42:01;5.10;;;3.05;;
42282;SDS011;28237;47.954;21.730;2023-09-19T02:44:29;6.22;;;3.45;;
42282;SDS011;28237;47.954;21.730;2023-09-19T02:46:54;3.92;;;3.50;;
42282;SDS011;28237;47.954;21.730;2023-09-19T02:49:19;3.45;;;3.15;;
42282;SDS011;28237;47.954;21.730;2023-09-19T02:51:45;3.30;;;3.00;;
42282;SDS011;28237;47.954;21.730;2023-09-19T02:54:10;5.05;;;3.50;;
42282;SDS011;28237;47.954;21.730;2023-09-19T02:56:36;5.20;;;3.03;;
42282;SDS011;28237;47.954;21.730;2023-09-19T02:59:02;4.28;;;3.55;;
42282;SDS011;28237;47.954;21.730;2023-09-19T03:01:28;3.28;;;3.08;;
42282;SDS011;28237;47.954;21.730;2023-09-19T03:03:54;6.03;;;3.90;;
42282;SDS011;28237;47.954;21.730;2023-09-19T03:06:19;4.93;;;3.53;;
42282;SDS011;28237;47.954;21.730;2023-09-19T03:08:45;4.07;;;3.70;;
42282;SDS011;28237;47.954;21.730;2023-09-19T03:11:11;8.65;;;3.65;;
42282;SDS011;28237;47.954;21.730;2023-09-19T03:13:38;3.83;;;2.90;;
42282;SDS011;28237;47.954;21.730;2023-09-19T03:16:06;3.95;;;3.65;;
42282;SDS011;28237;47.954;21.730;2023-09-19T03:18:32;3.70;;;3.40;;
42282;SDS011;28237;47.954;21.730;2023-09-19T03:20:58;3.30;;;3.00;;
42282;SDS011;28237;47.954;21.730;2023-09-19T03:23:27;6.13;;;3.75;;
42282;SDS011;28237;47.954;21.730;2023-09-19T03:25:56;3.50;;;3.17;;
42282;SDS011;28237;47.954;21.730;2023-09-19T03:28:22;3.72;;;3.33;;
42282;SDS011;28237;47.954;21.730;2023-09-19T03:31:01;3.97;;;3.58;;
42282;SDS011;28237;47.954;21.730;2023-09-19T03:33:26;3.65;;;3.35;;
42282;SDS011;28237;47.954;21.730;2023-09-19T03:35:52;3.50;;;3.20;;
42282;SDS011;28237;47.954;21.730;2023-09-19T03:38:18;4.18;;;3.35;;
42282;SDS011;28237;47.954;21.730;2023-09-19T03:40:43;3.40;;;3.10;;
42282;SDS011;28237;47.954;21.730;2023-09-19T03:43:08;6.43;;;3.50;;
42282;SDS011;28237;47.954;21.730;2023-09-19T03:45:34;4.38;;;3.72;;
42282;SDS011;28237;47.954;21.730;2023-09-19T03:47:59;4.00;;;3.60;;
42282;SDS011;28237;47.954;21.730;2023-09-19T03:50:24;3.75;;;3.45;;
42282;SDS011;28237;47.954;21.730;2023-09-19T03:52:50;8.13;;;4.03;;
42282;SDS011;28237;47.954;21.730;2023-09-19T03:55:15;5.60;;;4.33;;
42282;SDS011;28237;47.954;21.730;2023-09-19T03:57:40;4.13;;;3.73;;
42282;SDS011;28237;47.954;21.730;2023-09-19T04:03:17;5.30;;;4.07;;
42282;SDS011;28237;47.954;21.730;2023-09-19T04:05:46;5.95;;;3.75;;
42282;SDS011;28237;47.954;21.730;2023-09-19T04:08:12;5.75;;;3.95;;
42282;SDS011;28237;47.954;21.730;2023-09-19T04:10:37;3.53;;;3.15;;
42282;SDS011;28237;47.954;21.730;2023-09-19T04:13:02;5.20;;;4.07;;
42282;SDS011;28237;47.954;21.730;2023-09-19T04:15:29;6.85;;;4.18;;
42282;SDS011;28237;47.954;21.730;2023-09-19T04:17:54;4.75;;;3.45;;
42282;SDS011;28237;47.954;21.730;2023-09-19T04:20:19;5.57;;;3.95;;
42282;SDS011;28237;47.954;21.730;2023-09-19T04:22:45;5.25;;;4.15;;
42282;SDS011;28237;47.954;21.730;2023-09-19T04:25:11;5.05;;;4.05;;
42282;SDS011;28237;47.954;21.730;2023-09-19T04:27:36;5.20;;;3.73;;
42282;SDS011;28237;47.954;21.730;2023-09-19T04:30:02;4.30;;;3.90;;
42282;SDS011;28237;47.954;21.730;2023-09-19T04:32:29;5.97;;;4.38;;
42282;SDS011;28237;47.954;21.730;2023-09-19T04:34:54;6.80;;;4.30;;
42282;SDS011;28237;47.954;21.730;2023-09-19T04:37:24;5.00;;;4.32;;
42282;SDS011;28237;47.954;21.730;2023-09-19T04:39:50;6.90;;;4.37;;
42282;SDS011;28237;47.954;21.730;2023-09-19T04:42:16;5.70;;;4.50;;
42282;SDS011;28237;47.954;21.730;2023-09-19T04:44:42;4.90;;;4.40;;
42282;SDS011;28237;47.954;21.730;2023-09-19T04:47:08;4.38;;;3.85;;
42282;SDS011;28237;47.954;21.730;2023-09-19T04:49:33;5.53;;;3.80;;
42282;SDS011;28237;47.954;21.730;2023-09-19T04:51:59;5.82;;;4.07;;
42282;SDS011;28237;47.954;21.730;2023-09-19T04:54:24;4.30;;;3.90;;
42282;SDS011;28237;47.954;21.730;2023-09-19T04:56:49;6.63;;;4.27;;
42282;SDS011;28237;47.954;21.730;2023-09-19T04:59:15;5.53;;;3.93;;
42282;SDS011;28237;47.954;21.730;2023-09-19T05:01:40;7.15;;;4.78;;
42282;SDS011;28237;47.954;21.730;2023-09-19T05:04:06;4.10;;;3.80;;
42282;SDS011;28237;47.954;21.730;2023-09-19T05:06:31;4.43;;;3.88;;
42282;SDS011;28237;47.954;21.730;2023-09-19T05:08:56;5.30;;;4.25;;
42282;SDS011;28237;47.954;21.730;2023-09-19T05:11:22;6.83;;;4.00;;
42282;SDS011;28237;47.954;21.730;2023-09-19T05:13:48;5.90;;;4.00;;
42282;SDS011;28237;47.954;21.730;2023-09-19T05:16:15;4.60;;;4.20;;
42282;SDS011;28237;47.954;21.730;2023-09-19T05:18:41;3.95;;;3.65;;
42282;SDS011;28237;47.954;21.730;2023-09-19T05:21:07;4.20;;;3.65;;
42282;SDS011;28237;47.954;21.730;2023-09-19T05:23:33;5.72;;;4.43;;
42282;SDS011;28237;47.954;21.730;2023-09-19T05:25:58;6.28;;;4.05;;
42282;SDS011;28237;47.954;21.730;2023-09-19T05:28:25;4.80;;;3.92;;
42282;SDS011;28237;47.954;21.730;2023-09-19T05:30:50;4.38;;;3.97;;
42282;SDS011;28237;47.954;21.730;2023-09-19T05:33:16;4.03;;;3.63;;
42282;SDS011;28237;47.954;21.730;2023-09-19T05:35:43;7.05;;;3.75;;
42282;SDS011;28237;47.954;21.730;2023-09-19T05:38:08;4.28;;;3.75;;
42282;SDS011;28237;47.954;21.730;2023-09-19T05:40:34;4.68;;;4.03;;
42282;SDS011;28237;47.954;21.730;2023-09-19T05:43:00;6.93;;;3.88;;
42282;SDS011;28237;47.954;21.730;2023-09-19T05:45:25;5.03;;;4.25;;
42282;SDS011;28237;47.954;21.730;2023-09-19T05:47:51;5.22;;;4.20;;
42282;SDS011;28237;47.954;21.730;2023-09-19T05:50:20;4.18;;;3.78;;
42282;SDS011;28237;47.954;21.730;2023-09-19T05:52:52;4.32;;;3.42;;
42282;SDS011;28237;47.954;21.730;2023-09-19T05:55:18;6.05;;;3.95;;
42282;SDS011;28237;47.954;21.730;2023-09-19T05:57:49;3.78;;;3.45;;
42282;SDS011;28237;47.954;21.730;2023-09-19T06:00:15;5.55;;;3.42;;
42282;SDS011;28237;47.954;21.730;2023-09-19T06:02:42;4.97;;;3.92;;
42282;SDS011;28237;47.954;21.730;2023-09-19T06:05:09;4.38;;;3.70;;
42282;SDS011;28237;47.954;21.730;2023-09-19T06:07:35;7.50;;;3.50;;
42282;SDS011;28237;47.954;21.730;2023-09-19T06:10:05;6.07;;;3.92;;
42282;SDS011;28237;47.954;21.730;2023-09-19T06:12:32;5.47;;;3.00;;
42282;SDS011;28237;47.954;21.730;2023-09-19T06:15:02;4.13;;;3.72;;
42282;SDS011;28237;47.954;21.730;2023-09-19T06:17:28;3.92;;;3.53;;
42282;SDS011;28237;47.954;21.730;2023-09-19T06:19:53;4.30;;;3.90;;
42282;SDS011;28237;47.954;21.730;2023-09-19T06:22:20;4.03;;;3.38;;
42282;SDS011;28237;47.954;21.730;2023-09-19T06:24:47;4.15;;;3.17;;
42282;SDS011;28237;47.954;21.730;2023-09-19T06:27:13;4.20;;;3.70;;
42282;SDS011;28237;47.954;21.730;2023-09-19T06:29:38;3.83;;;3.45;;
42282;SDS011;28237;47.954;21.730;2023-09-19T06:32:07;4.90;;;3.95;;
42282;SDS011;28237;47.954;21.730;2023-09-19T06:34:33;6.35;;;3.88;;
42282;SDS011;28237;47.954;21.730;2023-09-19T06:36:59;4.28;;;3.65;;
42282;SDS011;28237;47.954;21.730;2023-09-19T06:39:24;4.67;;;3.30;;
42282;SDS011;28237;47.954;21.730;2023-09-19T06:41:51;4.30;;;2.65;;
42282;SDS011;28237;47.954;21.730;2023-09-19T06:44:18;4.05;;;3.60;;
42282;SDS011;28237;47.954;21.730;2023-09-19T06:46:43;6.43;;;3.50;;
42282;SDS011;28237;47.954;21.730;2023-09-19T06:49:11;5.57;;;3.90;;
42282;SDS011;28237;47.954;21.730;2023-09-19T06:51:38;5.50;;;3.60;;
42282;SDS011;28237;47.954;21.730;2023-09-19T06:54:03;3.97;;;3.47;;
42282;SDS011;28237;47.954;21.730;2023-09-19T06:56:30;6.28;;;3.65;;
42282;SDS011;28237;47.954;21.730;2023-09-19T06:58:57;5.53;;;3.38;;
42282;SDS011;28237;47.954;21.730;2023-09-19T07:01:22;3.60;;;3.30;;
42282;SDS011;28237;47.954;21.730;2023-09-19T07:03:47;6.97;;;4.40;;
42282;SDS011;28237;47.954;21.730;2023-09-19T07:06:12;4.00;;;3.27;;
42282;SDS011;28237;47.954;21.730;2023-09-19T07:08:38;4.07;;;3.22;;
42282;SDS011;28237;47.954;21.730;2023-09-19T07:11:03;4.28;;;3.10;;
42282;SDS011;28237;47.954;21.730;2023-09-19T07:13:31;4.35;;;3.53;;
42282;SDS011;28237;47.954;21.730;2023-09-19T07:15:57;5.20;;;3.30;;
42282;SDS011;28237;47.954;21.730;2023-09-19T07:18:23;4.95;;;3.35;;
42282;SDS011;28237;47.954;21.730;2023-09-19T07:20:48;3.83;;;3.03;;
42282;SDS011;28237;47.954;21.730;2023-09-19T07:23:21;3.10;;;2.75;;
42282;SDS011;28237;47.954;21.730;2023-09-19T07:25:48;4.38;;;3.22;;
42282;SDS011;28237;47.954;21.730;2023-09-19T07:28:13;5.60;;;3.83;;
42282;SDS011;28237;47.954;21.730;2023-09-19T07:30:39;3.78;;;3.38;;
42282;SDS011;28237;47.954;21.730;2023-09-19T07:33:05;3.53;;;3.05;;
42282;SDS011;28237;47.954;21.730;2023-09-19T07:35:31;3.63;;;3.15;;
42282;SDS011;28237;47.954;21.730;2023-09-19T07:37:56;3.08;;;2.72;;
42282;SDS011;28237;47.954;21.730;2023-09-19T07:40:23;4.88;;;2.83;;
42282;SDS011;28237;47.954;21.730;2023-09-19T07:42:49;3.58;;;2.55;;
42282;SDS011;28237;47.954;21.730;2023-09-19T07:45:15;3.90;;;2.55;;
42282;SDS011;28237;47.954;21.730;2023-09-19T07:47:45;2.78;;;2.35;;
42282;SDS011;28237;47.954;21.730;2023-09-19T07:50:10;2.65;;;2.17;;
42282;SDS011;28237;47.954;21.730;2023-09-19T07:52:36;3.40;;;2.03;;
42282;SDS011;28237;47.954;21.730;2023-09-19T07:55:01;3.13;;;2.30;;
42282;SDS011;28237;47.954;21.730;2023-09-19T07:57:34;4.28;;;3.63;;
42282;SDS011;28237;47.954;21.730;2023-09-19T07:59:59;4.93;;;2.55;;
42282;SDS011;28237;47.954;21.730;2023-09-19T08:02:25;5.28;;;3.50;;
42282;SDS011;28237;47.954;21.730;2023-09-19T08:04:50;2.67;;;2.15;;
42282;SDS011;28237;47.954;21.730;2023-09-19T08:07:17;2.55;;;1.83;;
42282;SDS011;28237;47.954;21.730;2023-09-19T08:09:43;5.03;;;2.83;;
42282;SDS011;28237;47.954;21.730;2023-09-19T08:12:11;2.95;;;2.20;;
42282;SDS011;28237;47.954;21.730;2023-09-19T08:14:37;3.70;;;2.75;;
42282;SDS011;28237;47.954;21.730;2023-09-19T08:17:03;5.18;;;2.05;;
42282;SDS011;28237;47.954;21.730;2023-09-19T08:19:30;4.68;;;2.70;;
42282;SDS011;28237;47.954;21.730;2023-09-19T08:21:59;2.90;;;2.53;;
42282;SDS011;28237;47.954;21.730;2023-09-19T08:24:26;6.93;;;2.58;;
42282;SDS011;28237;47.954;21.730;2023-09-19T08:26:55;2.67;;;1.95;;
42282;SDS011;28237;47.954;21.730;2023-09-19T08:29:20;4.90;;;2.17;;
42282;SDS011;28237;47.954;21.730;2023-09-19T08:31:46;3.83;;;2.78;;
42282;SDS011;28237;47.954;21.730;2023-09-19T08:34:14;3.50;;;2.40;;
42282;SDS011;28237;47.954;21.730;2023-09-19T08:36:40;4.15;;;2.35;;
42282;SDS011;28237;47.954;21.730;2023-09-19T08:39:06;3.92;;;2.55;;
42282;SDS011;28237;47.954;21.730;2023-09-19T08:41:33;7.40;;;2.67;;
42282;SDS011;28237;47.954;21.730;2023-09-19T08:43:59;3.80;;;2.78;;
42282;SDS011;28237;47.954;21.730;2023-09-19T08:46:26;1.75;;;1.65;;
42282;SDS011;28237;47.954;21.730;2023-09-19T08:48:57;4.15;;;2.47;;
42282;SDS011;28237;47.954;21.730;2023-09-19T08:51:30;5.53;;;2.60;;
42282;SDS011;28237;47.954;21.730;2023-09-19T08:54:03;3.33;;;2.75;;
42282;SDS011;28237;47.954;21.730;2023-09-19T08:56:32;2.05;;;1.80;;
42282;SDS011;28237;47.954;21.730;2023-09-19T08:59:02;3.92;;;2.42;;
42282;SDS011;28237;47.954;21.730;2023-09-19T09:01:28;3.28;;;1.70;;
42282;SDS011;28237;47.954;21.730;2023-09-19T09:03:54;9.60;;;3.08;;
42282;SDS011;28237;47.954;21.730;2023-09-19T09:06:23;2.47;;;1.73;;
42282;SDS011;28237;47.954;21.730;2023-09-19T09:08:50;5.07;;;2.13;;
42282;SDS011;28237;47.954;21.730;2023-09-19T09:11:15;4.22;;;2.15;;
42282;SDS011;28237;47.954;21.730;2023-09-19T09:13:43;6.43;;;2.83;;
42282;SDS011;28237;47.954;21.730;2023-09-19T09:16:08;3.55;;;2.33;;
42282;SDS011;28237;47.954;21.730;2023-09-19T09:18:35;3.67;;;2.72;;
42282;SDS011;28237;47.954;21.730;2023-09-19T09:21:00;9.25;;;3.60;;
42282;SDS011;28237;47.954;21.730;2023-09-19T09:23:26;4.30;;;2.23;;
42282;SDS011;28237;47.954;21.730;2023-09-19T09:25:53;6.28;;;2.50;;
42282;SDS011;28237;47.954;21.730;2023-09-19T09:28:23;10.10;;;2.30;;
42282;SDS011;28237;47.954;21.730;2023-09-19T09:30:49;5.93;;;2.22;;
42282;SDS011;28237;47.954;21.730;2023-09-19T09:33:15;3.05;;;2.00;;
42282;SDS011;28237;47.954;21.730;2023-09-19T09:35:48;4.40;;;2.97;;
42282;SDS011;28237;47.954;21.730;2023-09-19T09:38:25;8.32;;;2.53;;
42282;SDS011;28237;47.954;21.730;2023-09-19T09:40:57;5.85;;;2.55;;
42282;SDS011;28237;47.954;21.730;2023-09-19T09:43:32;5.63;;;2.70;;
42282;SDS011;28237;47.954;21.730;2023-09-19T09:46:08;3.40;;;2.72;;
42282;SDS011;28237;47.954;21.730;2023-09-19T09:48:44;6.00;;;2.70;;
42282;SDS011;28237;47.954;21.730;2023-09-19T09:51:16;4.63;;;2.53;;
42282;SDS011;28237;47.954;21.730;2023-09-19T09:53:56;6.70;;;2.53;;
42282;SDS011;28237;47.954;21.730;2023-09-19T09:56:34;4.70;;;2.80;;
42282;SDS011;28237;47.954;21.730;2023-09-19T09:59:10;4.53;;;2.08;;
42282;SDS011;28237;47.954;21.730;2023-09-19T10:01:46;6.72;;;2.67;;
42282;SDS011;28237;47.954;21.730;2023-09-19T10:04:12;7.93;;;2.75;;
42282;SDS011;28237;47.954;21.730;2023-09-19T10:06:53;8.90;;;2.50;;
42282;SDS011;28237;47.954;21.730;2023-09-19T10:09:19;7.10;;;2.72;;
42282;SDS011;28237;47.954;21.730;2023-09-19T10:12:25;6.82;;;2.58;;
42282;SDS011;28237;47.954;21.730;2023-09-19T10:14:44;3.53;;;2.58;;
42282;SDS011;28237;47.954;21.730;2023-09-19T10:17:12;5.03;;;2.47;;
42282;SDS011;28237;47.954;21.730;2023-09-19T10:20:14;3.30;;;2.58;;
42282;SDS011;28237;47.954;21.730;2023-09-19T10:22:34;2.60;;;2.40;;
42282;SDS011;28237;47.954;21.730;2023-09-19T10:25:00;3.53;;;2.95;;
42282;SDS011;28237;47.954;21.730;2023-09-19T10:27:26;9.23;;;3.05;;
42282;SDS011;28237;47.954;21.730;2023-09-19T10:29:51;5.43;;;2.45;;
42282;SDS011;28237;47.954;21.730;2023-09-19T10:32:20;3.35;;;2.17;;
42282;SDS011;28237;47.954;21.730;2023-09-19T10:34:48;2.47;;;2.28;;
42282;SDS011;28237;47.954;21.730;2023-09-19T10:37:13;4.53;;;2.60;;
42282;SDS011;28237;47.954;21.730;2023-09-19T10:39:40;4.50;;;3.50;;
42282;SDS011;28237;47.954;21.730;2023-09-19T10:42:07;3.65;;;2.70;;
42282;SDS011;28237;47.954;21.730;2023-09-19T10:44:34;5.72;;;3.17;;
42282;SDS011;28237;47.954;21.730;2023-09-19T10:47:03;4.68;;;2.72;;
42282;SDS011;28237;47.954;21.730;2023-09-19T10:49:32;7.18;;;3.15;;
42282;SDS011;28237;47.954;21.730;2023-09-19T10:51:58;2.58;;;2.38;;
42282;SDS011;28237;47.954;21.730;2023-09-19T10:54:26;9.07;;;2.42;;
42282;SDS011;28237;47.954;21.730;2023-09-19T10:56:53;5.95;;;2.55;;
42282;SDS011;28237;47.954;21.730;2023-09-19T10:59:19;6.88;;;4.53;;
42282;SDS011;28237;47.954;21.730;2023-09-19T11:01:50;5.80;;;3.83;;
42282;SDS011;28237;47.954;21.730;2023-09-19T11:06:59;3.92;;;2.85;;
42282;SDS011;28237;47.954;21.730;2023-09-19T11:09:24;4.43;;;3.20;;
42282;SDS011;28237;47.954;21.730;2023-09-19T11:11:51;6.72;;;2.83;;
42282;SDS011;28237;47.954;21.730;2023-09-19T11:22:18;10.02;;;3.67;;
42282;SDS011;28237;47.954;21.730;2023-09-19T11:24:47;5.13;;;2.72;;
42282;SDS011;28237;47.954;21.730;2023-09-19T11:27:13;6.18;;;2.50;;
42282;SDS011;28237;47.954;21.730;2023-09-19T11:29:39;5.75;;;2.47;;
42282;SDS011;28237;47.954;21.730;2023-09-19T11:32:05;11.68;;;2.67;;
42282;SDS011;28237;47.954;21.730;2023-09-19T11:37:03;4.65;;;3.15;;
42282;SDS011;28237;47.954;21.730;2023-09-19T11:40:04;5.18;;;3.17;;
42282;SDS011;28237;47.954;21.730;2023-09-19T11:42:44;6.10;;;2.95;;
42282;SDS011;28237;47.954;21.730;2023-09-19T11:47:59;6.68;;;3.28;;
42282;SDS011;28237;47.954;21.730;2023-09-19T11:50:27;3.80;;;2.80;;
42282;SDS011;28237;47.954;21.730;2023-09-19T11:52:52;4.75;;;3.65;;
42282;SDS011;28237;47.954;21.730;2023-09-19T11:55:20;8.00;;;3.25;;
42282;SDS011;28237;47.954;21.730;2023-09-19T11:57:47;3.35;;;2.83;;
42282;SDS011;28237;47.954;21.730;2023-09-19T12:00:19;2.70;;;2.50;;
42282;SDS011;28237;47.954;21.730;2023-09-19T12:02:46;2.47;;;2.28;;
42282;SDS011;28237;47.954;21.730;2023-09-19T12:05:12;2.90;;;2.42;;
42282;SDS011;28237;47.954;21.730;2023-09-19T12:07:43;4.13;;;2.35;;
42282;SDS011;28237;47.954;21.730;2023-09-19T12:10:13;3.80;;;2.03;;
42282;SDS011;28237;47.954;21.730;2023-09-19T12:12:39;5.35;;;2.92;;
42282;SDS011;28237;47.954;21.730;2023-09-19T12:15:05;6.07;;;3.60;;
42282;SDS011;28237;47.954;21.730;2023-09-19T12:17:35;2.85;;;1.80;;
42282;SDS011;28237;47.954;21.730;2023-09-19T12:20:01;4.28;;;1.60;;
42282;SDS011;28237;47.954;21.730;2023-09-19T12:22:38;3.90;;;1.33;;
42282;SDS011;28237;47.954;21.730;2023-09-19T12:25:09;1.85;;;1.67;;
42282;SDS011;28237;47.954;21.730;2023-09-19T12:27:46;4.35;;;1.33;;
42282;SDS011;28237;47.954;21.730;2023-09-19T12:30:12;4.07;;;1.73;;
42282;SDS011;28237;47.954;21.730;2023-09-19T12:32:39;3.15;;;1.48;;
42282;SDS011;28237;47.954;21.730;2023-09-19T12:35:08;2.55;;;1.83;;
42282;SDS011;28237;47.954;21.730;2023-09-19T12:37:36;1.27;;;1.15;;
42282;SDS011;28237;47.954;21.730;2023-09-19T12:40:05;2.67;;;1.75;;
42282;SDS011;28237;47.954;21.730;2023-09-19T12:42:39;2.13;;;1.48;;
42282;SDS011;28237;47.954;21.730;2023-09-19T12:45:06;1.33;;;1.20;;
42282;SDS011;28237;47.954;21.730;2023-09-19T12:47:34;1.58;;;1.15;;
42282;SDS011;28237;47.954;21.730;2023-09-19T12:50:09;2.42;;;1.30;;
42282;SDS011;28237;47.954;21.730;2023-09-19T12:52:39;4.18;;;3.08;;
42282;SDS011;28237;47.954;21.730;2023-09-19T12:55:05;3.13;;;2.40;;
42282;SDS011;28237;47.954;21.730;2023-09-19T12:57:32;4.72;;;1.27;;
42282;SDS011;28237;47.954;21.730;2023-09-19T13:00:00;3.35;;;1.73;;
42282;SDS011;28237;47.954;21.730;2023-09-19T13:02:25;2.00;;;1.67;;
42282;SDS011;28237;47.954;21.730;2023-09-19T13:04:53;3.03;;;1.88;;
42282;SDS011;28237;47.954;21.730;2023-09-19T13:10:03;2.25;;;1.13;;
42282;SDS011;28237;47.954;21.730;2023-09-19T13:12:36;3.05;;;0.80;;
42282;SDS011;28237;47.954;21.730;2023-09-19T13:15:11;1.10;;;0.30;;
42282;SDS011;28237;47.954;21.730;2023-09-19T13:17:43;0.50;;;0.30;;
42282;SDS011;28237;47.954;21.730;2023-09-19T13:20:20;0.70;;;0.30;;
42282;SDS011;28237;47.954;21.730;2023-09-19T13:22:49;0.20;;;0.10;;
42282;SDS011;28237;47.954;21.730;2023-09-19T13:25:19;1.23;;;0.20;;
42282;SDS011;28237;47.954;21.730;2023-09-19T13:27:45;0.25;;;0.20;;
42282;SDS011;28237;47.954;21.730;2023-09-19T13:30:11;0.60;;;0.28;;
42282;SDS011;28237;47.954;21.730;2023-09-19T13:32:37;1.77;;;1.60;;
42282;SDS011;28237;47.954;21.730;2023-09-19T13:35:03;1.30;;;1.20;;
42282;SDS011;28237;47.954;21.730;2023-09-19T13:37:30;1.67;;;0.90;;
42282;SDS011;28237;47.954;21.730;2023-09-19T13:39:55;1.88;;;1.65;;
42282;SDS011;28237;47.954;21.730;2023-09-19T13:42:22;1.92;;;1.83;;
42282;SDS011;28237;47.954;21.730;2023-09-19T13:44:48;11.32;;;3.95;;
42282;SDS011;28237;47.954;21.730;2023-09-19T13:47:14;8.53;;;4.80;;
42282;SDS011;28237;47.954;21.730;2023-09-19T13:49:40;7.82;;;4.47;;
42282;SDS011;28237;47.954;21.730;2023-09-19T13:52:05;8.30;;;5.90;;
42282;SDS011;28237;47.954;21.730;2023-09-19T13:54:32;7.65;;;5.60;;
42282;SDS011;28237;47.954;21.730;2023-09-19T13:56:57;9.60;;;5.57;;
42282;SDS011;28237;47.954;21.730;2023-09-19T13:59:23;6.27;;;5.50;;
42282;SDS011;28237;47.954;21.730;2023-09-19T14:01:51;8.07;;;6.03;;
42282;SDS011;28237;47.954;21.730;2023-09-19T14:04:18;7.07;;;5.95;;
42282;SDS011;28237;47.954;21.730;2023-09-19T14:06:44;5.68;;;5.07;;
42282;SDS011;28237;47.954;21.730;2023-09-19T14:09:10;9.25;;;6.05;;
42282;SDS011;28237;47.954;21.730;2023-09-19T14:11:36;7.32;;;5.07;;
42282;SDS011;28237;47.954;21.730;2023-09-19T14:14:02;5.30;;;4.60;;
42282;SDS011;28237;47.954;21.730;2023-09-19T14:16:29;11.38;;;5.78;;
42282;SDS011;28237;47.954;21.730;2023-09-19T14:18:56;6.25;;;4.47;;
42282;SDS011;28237;47.954;21.730;2023-09-19T14:21:21;4.70;;;3.70;;
42282;SDS011;28237;47.954;21.730;2023-09-19T14:23:46;4.43;;;3.67;;
42282;SDS011;28237;47.954;21.730;2023-09-19T14:26:14;2.42;;;2.22;;
42282;SDS011;28237;47.954;21.730;2023-09-19T14:28:41;2.90;;;1.90;;
42282;SDS011;28237;47.954;21.730;2023-09-19T14:31:07;2.28;;;2.08;;
42282;SDS011;28237;47.954;21.730;2023-09-19T14:33:32;2.40;;;2.20;;
42282;SDS011;28237;47.954;21.730;2023-09-19T14:35:58;3.37;;;2.23;;
42282;SDS011;28237;47.954;21.730;2023-09-19T14:38:24;3.78;;;2.08;;
42282;SDS011;28237;47.954;21.730;2023-09-19T14:40:58;2.50;;;2.30;;
42282;SDS011;28237;47.954;21.730;2023-09-19T14:43:23;2.05;;;1.85;;
42282;SDS011;28237;47.954;21.730;2023-09-19T14:45:48;2.10;;;1.73;;
42282;SDS011;28237;47.954;21.730;2023-09-19T14:48:14;1.87;;;1.60;;
42282;SDS011;28237;47.954;21.730;2023-09-19T14:50:39;1.93;;;1.43;;
42282;SDS011;28237;47.954;21.730;2023-09-19T14:53:04;1.42;;;1.23;;
42282;SDS011;28237;47.954;21.730;2023-09-19T14:55:36;1.27;;;1.15;;
42282;SDS011;28237;47.954;21.730;2023-09-19T14:58:01;2.08;;;1.00;;
42282;SDS011;28237;47.954;21.730;2023-09-19T15:00:27;0.70;;;0.70;;
42282;SDS011;28237;47.954;21.730;2023-09-19T15:02:53;1.07;;;0.97;;
42282;SDS011;28237;47.954;21.730;2023-09-19T15:05:18;0.65;;;0.65;;
42282;SDS011;28237;47.954;21.730;2023-09-19T15:07:44;0.95;;;0.63;;
42282;SDS011;28237;47.954;21.730;2023-09-19T15:10:09;0.82;;;0.82;;